Time;durP1;ratioP1;P1;durP2;ratioP2;P2;SDS_P1;SDS_P2;PMS_P1;PMS_P2;Temp;Humidity;BMP_temperature;BMP_pressure;BME280_temperature;BME280_humidity;BME280_pressure;Samples;Min_cycle;Max_cycle;Signal;HPM_P1;HPM_P2
2021/09/06 03:32:16;;;;;;;8.30;7.00;;;;;;;16.92;59.83;99308.19;8584644;22;20202;-83
2021/09/06 03:35:38;;;;;;;8.30;7.40;;;;;;;16.51;60.61;99317.16;8574640;23;20169;-83
2021/09/06 03:38:59;;;;;;;8.67;6.93;;;;;;;16.71;60.17;99311.44;8574702;23;20183;-82
2021/09/06 03:42:21;;;;;;;8.50;7.70;;;;;;;16.66;60.06;99312.13;8575201;23;20703;-82
2021/09/06 03:45:42;;;;;;;9.23;7.50;;;;;;;16.72;59.47;99303.03;8577260;23;20199;-83
2021/09/06 03:49:06;;;;;;;9.50;7.50;;;;;;;16.80;59.86;99304.59;8575958;23;20515;-83
2021/09/06 03:52:27;;;;;;;11.30;8.10;;;;;;;16.63;59.61;99296.25;8577101;23;20540;-83
2021/09/06 03:55:49;;;;;;;8.77;7.77;;;;;;;16.62;59.67;99302.75;8590023;23;20187;-83
2021/09/06 03:59:10;;;;;;;9.70;7.20;;;;;;;16.49;59.61;99297.50;8577623;23;20185;-84
2021/09/06 04:02:32;;;;;;;9.17;7.47;;;;;;;16.47;59.75;99309.69;8590849;23;20198;-83
2021/09/06 04:05:55;;;;;;;10.83;7.80;;;;;;;16.51;59.93;99316.34;8592524;23;20208;-83
2021/09/06 04:09:17;;;;;;;7.97;7.17;;;;;;;16.74;59.50;99313.72;8573809;23;20181;-83
2021/09/06 04:12:39;;;;;;;10.07;8.23;;;;;;;16.59;59.55;99311.41;8573823;23;20200;-83
2021/09/06 04:16:00;;;;;;;8.40;7.50;;;;;;;16.26;60.66;99301.97;8574524;23;20186;-83
2021/09/06 04:19:22;;;;;;;8.87;7.13;;;;;;;16.27;59.95;99304.47;8573348;23;20738;-84
2021/09/06 04:22:45;;;;;;;8.10;7.30;;;;;;;16.47;59.79;99312.41;8573823;23;20670;-83
2021/09/06 04:26:07;;;;;;;8.57;7.70;;;;;;;16.88;58.75;99332.31;8573640;23;20205;-83
2021/09/06 04:29:29;;;;;;;8.80;7.90;;;;;;;16.42;59.33;99304.09;8572417;23;20185;-83
2021/09/06 04:32:50;;;;;;;8.20;6.73;;;;;;;16.49;59.59;99326.59;8606282;23;20223;-83
2021/09/06 04:36:12;;;;;;;7.90;7.10;;;;;;;16.77;58.78;99330.41;8615580;23;20527;-83
2021/09/06 04:39:35;;;;;;;10.77;8.40;;;;;;;16.20;59.10;99336.38;8629816;23;20175;-83
2021/09/06 04:42:56;;;;;;;9.60;8.03;;;;;;;16.22;60.40;99334.25;8615623;22;20208;-83
2021/09/06 04:46:18;;;;;;;8.87;7.97;;;;;;;16.09;60.35;99336.28;8615404;23;20252;-83
2021/09/06 04:49:39;;;;;;;9.57;7.83;;;;;;;16.11;59.77;99334.19;8615083;23;20543;-83
2021/09/06 04:53:01;;;;;;;9.10;8.07;;;;;;;16.10;60.06;99341.53;8615231;22;20212;-83
2021/09/06 04:56:24;;;;;;;8.33;7.53;;;;;;;16.26;59.73;99361.84;8615710;23;20178;-83
2021/09/06 04:59:46;;;;;;;8.13;7.33;;;;;;;16.07;60.13;99366.47;8614354;23;20189;-83
2021/09/06 05:03:07;;;;;;;10.00;7.37;;;;;;;16.37;60.05;99358.34;8616041;22;20208;-83
2021/09/06 05:06:29;;;;;;;9.17;8.27;;;;;;;15.92;60.55;99366.00;8635255;22;20639;-84
2021/09/06 05:09:50;;;;;;;9.13;7.70;;;;;;;16.37;60.42;99355.63;8614858;23;20186;-84
2021/09/06 05:13:14;;;;;;;9.40;7.70;;;;;;;16.32;60.23;99372.66;8616526;22;20524;-83
2021/09/06 05:16:35;;;;;;;9.90;7.93;;;;;;;16.36;60.08;99382.03;8615167;23;20182;-83
2021/09/06 05:19:57;;;;;;;10.03;7.40;;;;;;;16.51;59.26;99374.31;8616291;23;20196;-83
2021/09/06 05:23:19;;;;;;;10.13;7.77;;;;;;;16.14;59.98;99378.09;8628393;22;20530;-83
2021/09/06 05:26:40;;;;;;;8.37;6.97;;;;;;;16.78;58.50;99372.91;8614672;23;20653;-83
2021/09/06 05:30:04;;;;;;;10.10;7.63;;;;;;;16.28;59.15;99395.94;8615073;23;20193;-83
2021/09/06 05:33:26;;;;;;;9.70;8.70;;;;;;;16.30;59.47;99398.44;8614771;22;20228;-82
2021/09/06 05:36:47;;;;;;;9.87;8.13;;;;;;;16.38;59.13;99384.50;8614966;23;20242;-83
2021/09/06 05:40:10;;;;;;;10.70;7.40;;;;;;;16.69;58.85;99396.06;8613915;23;20184;-83
2021/09/06 05:43:32;;;;;;;11.33;7.77;;;;;;;16.44;59.00;99403.53;8614614;23;20188;-83
2021/09/06 05:46:55;;;;;;;8.93;8.03;;;;;;;16.42;59.69;99404.81;8628173;22;20201;-83
2021/09/06 05:50:18;;;;;;;12.07;7.93;;;;;;;16.89;59.94;99404.81;8627437;22;20175;-83
2021/09/06 05:53:39;;;;;;;12.53;8.20;;;;;;;17.39;57.88;99411.63;8615003;23;20201;-83
2021/09/06 05:57:01;;;;;;;9.63;7.70;;;;;;;17.76;57.17;99404.91;8628731;23;20196;-83
2021/09/06 06:00:23;;;;;;;9.17;7.53;;;;;;;17.63;57.28;99404.34;8628140;22;20177;-83
2021/09/06 06:03:46;;;;;;;7.17;6.57;;;;;;;18.03;57.06;99394.34;8616109;23;20189;-83
2021/09/06 06:07:07;;;;;;;8.03;6.77;;;;;;;18.71;55.24;99400.78;8616141;23;20205;-83
2021/09/06 06:10:29;;;;;;;7.00;6.30;;;;;;;19.15;54.16;99406.31;8617220;22;20182;-83
2021/09/06 06:13:51;;;;;;;9.40;6.27;;;;;;;19.70;52.62;99407.28;8618592;23;20189;-83
2021/09/06 06:17:12;;;;;;;7.47;6.50;;;;;;;19.46;53.01;99408.53;8619910;23;20693;-83
2021/09/06 06:20:35;;;;;;;8.00;7.10;;;;;;;19.05;53.80;99408.03;8633486;22;20194;-82
2021/09/06 06:23:57;;;;;;;9.93;7.33;;;;;;;18.82;54.95;99394.47;8634338;23;20189;-84
2021/09/06 06:27:18;;;;;;;9.80;7.47;;;;;;;19.35;54.56;99411.34;8634692;23;20194;-83
2021/09/06 06:30:40;;;;;;;8.10;6.80;;;;;;;19.98;52.92;99417.34;8620659;22;20775;-83
2021/09/06 06:34:02;;;;;;;7.50;6.67;;;;;;;19.83;52.55;99406.13;8622443;23;20193;-83
2021/09/06 06:37:25;;;;;;;9.47;6.80;;;;;;;20.54;51.59;99423.38;8623912;23;20186;-83
2021/09/06 06:40:47;;;;;;;8.80;7.10;;;;;;;20.89;50.66;99418.38;8638879;22;20252;-82
2021/09/06 06:44:09;;;;;;;8.00;6.80;;;;;;;21.16;50.38;99404.69;8626142;23;20177;-83
2021/09/06 06:47:30;;;;;;;7.23;6.53;;;;;;;21.49;49.87;99414.31;8623842;23;20201;-83
2021/09/06 06:50:52;;;;;;;12.00;7.10;;;;;;;20.79;49.67;99355.16;8623391;22;20206;-83
2021/09/06 06:54:15;;;;;;;8.30;7.23;;;;;;;21.61;50.09;99411.44;8623681;23;20237;-83
2021/09/06 06:57:36;;;;;;;8.33;6.40;;;;;;;21.79;49.65;99424.78;8624588;23;20183;-83
2021/09/06 07:00:58;;;;;;;7.63;6.57;;;;;;;22.15;49.36;99416.56;8636798;22;20189;-83
2021/09/06 07:04:20;;;;;;;7.30;6.57;;;;;;;22.79;46.96;99403.44;8624383;23;20645;-83
2021/09/06 07:07:41;;;;;;;7.10;6.23;;;;;;;22.39;47.50;99415.06;8624238;23;20199;-83
2021/09/06 07:11:04;;;;;;;9.33;6.63;;;;;;;22.30;48.75;99419.38;8635951;22;20195;-83
2021/09/06 07:14:26;;;;;;;7.87;6.67;;;;;;;22.66;47.55;99418.50;8637961;23;20653;-83
2021/09/06 07:17:48;;;;;;;9.13;7.03;;;;;;;23.38;45.85;99388.22;8621749;23;20184;-83
2021/09/06 07:21:09;;;;;;;7.80;6.33;;;;;;;24.21;43.51;99418.81;8621940;22;20555;-83
2021/09/06 07:24:31;;;;;;;7.27;6.33;;;;;;;24.03;44.82;99427.66;8623060;23;20688;-83
2021/09/06 07:27:54;;;;;;;6.90;6.20;;;;;;;24.06;44.31;99418.00;8622572;23;20270;-83
2021/09/06 07:31:15;;;;;;;7.93;5.93;;;;;;;23.92;44.00;99398.44;8636127;22;20203;-83
2021/09/06 07:34:37;;;;;;;6.70;5.83;;;;;;;24.33;44.92;99408.31;8622460;23;20195;-83
2021/09/06 07:37:59;;;;;;;7.67;6.57;;;;;;;24.57;43.67;99419.56;8622883;23;20179;-83
2021/09/06 07:41:21;;;;;;;8.40;5.80;;;;;;;24.95;43.73;99416.94;8622319;22;20204;-82
2021/09/06 07:44:44;;;;;;;7.87;6.43;;;;;;;25.11;43.70;99415.75;8622856;23;20218;-83
2021/09/06 07:48:06;;;;;;;7.13;6.30;;;;;;;25.52;42.75;99367.47;8623557;23;20212;-83
2021/09/06 07:51:28;;;;;;;6.97;6.37;;;;;;;26.20;41.71;99418.81;8624757;22;20628;-83
2021/09/06 07:54:50;;;;;;;7.03;6.33;;;;;;;26.51;39.46;99411.03;8625121;23;20189;-83
2021/09/06 07:58:11;;;;;;;7.40;6.07;;;;;;;26.97;39.67;99412.19;8623967;23;20180;-83
2021/09/06 08:01:34;;;;;;;8.63;6.27;;;;;;;26.74;38.97;99401.94;8624513;22;20213;-83
2021/09/06 08:04:56;;;;;;;8.07;6.33;;;;;;;27.52;37.15;99412.25;8624288;23;20185;-83
2021/09/06 08:08:19;;;;;;;8.23;5.97;;;;;;;26.51;39.34;99420.19;8623348;23;20204;-83
2021/09/06 08:11:45;;;;;;;8.40;5.67;;;;;;;27.77;37.76;99427.66;8623917;22;20294;-83
2021/09/06 08:15:07;;;;;;;6.13;5.53;;;;;;;28.14;37.60;99424.84;8625301;23;20162;-84
2021/09/06 08:18:30;;;;;;;12.23;9.60;;;;;;;28.11;37.73;99436.53;8623339;23;20186;-83
2021/09/06 08:21:53;;;;;;;10.13;8.53;;;;;;;27.75;37.67;99433.50;8623280;22;20198;-83
2021/09/06 08:25:16;;;;;;;8.97;8.07;;;;;;;27.91;39.03;99440.47;8624117;23;20188;-83
2021/09/06 08:28:37;;;;;;;10.70;9.60;;;;;;;28.05;38.15;99446.88;8623365;23;20185;-83
2021/09/06 08:31:59;;;;;;;8.70;7.50;;;;;;;27.61;38.95;99443.69;8622997;22;20540;-83
2021/09/06 08:35:22;;;;;;;8.73;7.00;;;;;;;28.70;37.37;99442.09;8623662;23;20183;-83
2021/09/06 08:38:44;;;;;;;7.07;6.37;;;;;;;28.59;36.82;99447.03;8621551;23;20552;-84
2021/09/06 08:42:06;;;;;;;6.77;6.10;;;;;;;28.07;38.38;99447.41;8621332;22;20206;-83
2021/09/06 08:45:28;;;;;;;6.67;6.07;;;;;;;28.43;38.17;99458.75;8621175;23;20183;-84
2021/09/06 08:48:49;;;;;;;6.17;5.53;;;;;;;28.93;36.25;99447.47;8635416;23;20170;-83
2021/09/06 08:52:13;;;;;;;9.70;6.83;;;;;;;28.63;36.80;99420.31;8622289;22;20204;-83
2021/09/06 08:55:34;;;;;;;7.33;6.60;;;;;;;29.06;36.09;99465.28;8622300;23;20187;-84
2021/09/06 08:58:56;;;;;;;7.07;6.30;;;;;;;29.00;36.19;99466.50;8621237;23;20181;-83
2021/09/06 09:02:22;;;;;;;8.63;6.30;;;;;;;29.46;35.42;99459.69;8635515;22;20197;-83
2021/09/06 09:05:59;;;;;;;8.47;6.33;;;;;;;29.70;34.90;99457.47;8634560;23;20186;-83
2021/09/06 09:09:24;;;;;;;8.23;6.57;;;;;;;29.08;36.83;99466.59;8620907;23;20173;-83
2021/09/06 09:12:52;;;;;;;8.43;6.50;;;;;;;29.87;35.45;99452.06;8629048;22;20209;-84
2021/09/06 09:16:13;;;;;;;8.07;7.17;;;;;;;29.16;34.78;99463.13;8641176;22;20229;-83
2021/09/06 09:19:35;;;;;;;6.63;5.90;;;;;;;29.77;33.87;99455.09;8621102;23;20185;-83
2021/09/06 09:22:57;;;;;;;7.83;6.07;;;;;;;29.51;35.23;99464.28;8620760;22;20208;-83
2021/09/06 09:26:20;;;;;;;7.27;6.23;;;;;;;29.27;35.25;99455.38;8622526;23;20527;-83
2021/09/06 09:29:41;;;;;;;6.40;5.90;;;;;;;29.85;34.72;99457.09;8621678;23;20195;-84
2021/09/06 09:33:08;;;;;;;7.73;5.83;;;;;;;29.90;34.12;99451.44;8635382;22;20790;-83
2021/09/06 09:36:31;;;;;;;6.20;5.60;;;;;;;31.06;32.21;99443.59;8622339;23;20160;-84
2021/09/06 09:39:56;;;;;;;7.17;6.03;;;;;;;30.65;31.44;99448.69;8622441;23;20717;-83
2021/09/06 09:43:29;;;;;;;6.00;5.50;;;;;;;30.86;32.18;99436.69;8622706;22;20680;-82
2021/09/06 09:46:55;;;;;;;6.70;6.00;;;;;;;30.24;31.48;99450.91;8616959;23;20182;-82
2021/09/06 09:50:17;;;;;;;6.10;5.60;;;;;;;30.59;31.15;99447.16;8615870;22;20179;-82
2021/09/06 09:53:38;;;;;;;6.67;5.97;;;;;;;31.29;29.98;99445.16;8617330;23;20185;-82
2021/09/06 09:57:00;;;;;;;6.47;5.47;;;;;;;31.63;29.57;99448.84;8617841;23;20182;-82
2021/09/06 10:00:23;;;;;;;5.80;5.27;;;;;;;31.50;29.17;99432.25;8617222;22;20201;-83
2021/09/06 10:03:45;;;;;;;6.17;5.57;;;;;;;30.45;28.65;99443.66;8617901;23;20180;-83
2021/09/06 10:07:07;;;;;;;7.73;5.47;;;;;;;29.80;31.90;99445.28;8618201;23;20527;-82
2021/09/06 10:10:36;;;;;;;6.40;5.80;;;;;;;31.28;28.53;99444.38;8619020;22;20192;-83
2021/09/06 10:13:58;;;;;;;7.60;5.40;;;;;;;31.64;28.36;99432.91;8620517;23;20176;-82
2021/09/06 10:17:34;;;;;;;6.67;6.07;;;;;;;31.01;28.58;99429.84;8619444;23;20183;-83
2021/09/06 10:20:56;;;;;;;11.87;5.70;;;;;;;30.42;29.46;99414.50;8619607;22;20204;-83
2021/09/06 10:24:19;;;;;;;6.60;5.90;;;;;;;31.57;28.12;99422.28;8620186;23;20184;-82
2021/09/06 10:27:52;;;;;;;6.30;5.70;;;;;;;29.42;31.06;99410.59;8618949;23;20210;-82
2021/09/06 10:31:21;;;;;;;6.33;5.73;;;;;;;28.90;32.49;99416.72;8619957;22;20544;-82
2021/09/06 10:34:45;;;;;;;6.53;5.93;;;;;;;30.18;31.67;99393.72;8620033;23;20264;-82
2021/09/06 10:38:09;;;;;;;7.43;6.37;;;;;;;30.38;30.47;99415.47;8619304;23;20176;-82
2021/09/06 10:41:30;;;;;;;7.47;6.00;;;;;;;30.73;30.54;99408.94;8620011;22;20204;-82
2021/09/06 10:44:57;;;;;;;7.70;6.50;;;;;;;31.75;28.79;99415.59;8620053;23;20189;-83
2021/09/06 10:48:21;;;;;;;6.27;5.67;;;;;;;30.07;30.10;99406.25;8620399;23;20193;-82
2021/09/06 10:51:44;;;;;;;6.57;5.43;;;;;;;31.01;29.41;99400.00;8620537;22;20251;-83
2021/09/06 10:55:06;;;;;;;6.30;5.70;;;;;;;31.90;27.55;99397.53;8620192;23;20201;-82
2021/09/06 10:58:29;;;;;;;6.60;5.90;;;;;;;29.68;30.80;99398.59;8618803;23;20239;-82
2021/09/06 11:01:52;;;;;;;6.27;5.67;;;;;;;31.49;28.83;99388.81;8619121;22;20203;-82
2021/09/06 11:05:17;;;;;;;7.13;5.80;;;;;;;29.88;30.13;99394.47;8619219;23;20642;-82
2021/09/06 11:08:40;;;;;;;6.57;5.97;;;;;;;31.40;28.68;99391.59;8627811;23;20238;-82
2021/09/06 11:12:04;;;;;;;6.60;6.00;;;;;;;32.25;27.12;99383.19;8617435;22;20205;-83
2021/09/06 11:15:27;;;;;;;7.87;5.47;;;;;;;31.94;27.45;99385.34;8617283;23;20266;-83
2021/09/06 11:18:51;;;;;;;7.37;5.77;;;;;;;32.02;28.33;99378.13;8617202;23;20237;-82
2021/09/06 11:22:15;;;;;;;7.87;6.27;;;;;;;31.17;28.63;99383.66;8617076;22;20209;-82
2021/09/06 11:25:41;;;;;;;7.13;6.33;;;;;;;31.49;28.69;99386.81;8618022;23;20298;-83
2021/09/06 11:29:03;;;;;;;8.83;6.43;;;;;;;30.66;29.77;99389.91;8628305;23;20208;-83
2021/09/06 11:32:25;;;;;;;7.97;6.43;;;;;;;31.19;29.35;99378.63;8628438;22;20217;-83
2021/09/06 11:35:48;;;;;;;6.53;5.90;;;;;;;31.83;28.51;99386.84;8635468;23;20173;-84
2021/09/06 11:39:10;;;;;;;6.40;5.80;;;;;;;32.96;27.49;99387.03;8624361;23;20359;-83
2021/09/06 11:42:33;;;;;;;6.40;5.80;;;;;;;32.37;26.44;99400.06;8622132;22;20524;-83
2021/09/06 11:45:59;;;;;;;6.43;5.63;;;;;;;32.74;26.90;99393.69;8622336;23;20181;-84
2021/09/06 11:49:20;;;;;;;6.30;5.70;;;;;;;32.98;25.99;99395.88;8621878;23;20186;-83
2021/09/06 11:52:44;;;;;;;9.40;6.00;;;;;;;32.11;26.65;99388.13;8623966;22;20453;-83
2021/09/06 11:56:12;;;;;;;6.27;5.73;;;;;;;31.63;27.43;99364.34;8636070;23;20177;-84
2021/09/06 11:59:35;;;;;;;6.77;6.17;;;;;;;31.25;28.40;99380.91;8636315;23;20163;-83
2021/09/06 12:02:59;;;;;;;6.57;5.87;;;;;;;31.63;27.24;99359.63;8620904;22;20208;-83
2021/09/06 12:06:22;;;;;;;9.33;6.33;;;;;;;32.79;27.13;99370.34;8620484;23;20262;-84
2021/09/06 12:09:43;;;;;;;8.63;7.70;;;;;;;33.27;25.05;99367.94;8636831;23;20197;-83
2021/09/06 12:13:06;;;;;;;6.30;5.67;;;;;;;33.29;25.25;99377.63;8622141;22;20710;-84
2021/09/06 12:16:30;;;;;;;5.93;5.43;;;;;;;32.69;26.57;99382.69;8620324;23;20184;-84
2021/09/06 12:19:51;;;;;;;6.27;5.67;;;;;;;32.81;25.87;99384.81;8621081;23;20643;-84
2021/09/06 12:23:14;;;;;;;6.30;5.43;;;;;;;32.74;26.35;99378.91;8639334;22;20197;-83
2021/09/06 12:26:41;;;;;;;7.80;5.93;;;;;;;31.99;26.24;99376.81;8638683;23;20202;-83
2021/09/06 12:30:04;;;;;;;7.37;6.10;;;;;;;31.57;27.02;99376.81;8624492;23;20245;-84
2021/09/06 12:33:27;;;;;;;6.70;6.10;;;;;;;31.45;26.13;99365.50;8622871;22;20222;-84
2021/09/06 12:36:50;;;;;;;6.93;5.70;;;;;;;32.17;26.11;99374.78;8623337;23;20185;-83
2021/09/06 12:40:13;;;;;;;7.17;5.93;;;;;;;32.61;24.42;99372.38;8623356;22;20622;-83
2021/09/06 12:43:34;;;;;;;7.13;6.43;;;;;;;32.89;25.40;99362.41;8622105;23;20192;-84
2021/09/06 12:46:56;;;;;;;6.07;5.30;;;;;;;32.69;23.34;99379.91;8635652;23;20194;-84
2021/09/06 12:50:19;;;;;;;6.97;5.07;;;;;;;32.62;23.72;99382.41;8631974;22;20175;-83
2021/09/06 12:53:40;;;;;;;5.23;4.73;;;;;;;32.22;24.10;99374.63;8619791;23;20218;-84
2021/09/06 12:57:02;;;;;;;5.50;5.00;;;;;;;32.46;23.19;99372.09;8635121;23;20485;-83
2021/09/06 13:00:25;;;;;;;6.50;5.07;;;;;;;31.90;24.38;99373.22;8632827;22;20512;-84
2021/09/06 13:03:46;;;;;;;7.30;5.60;;;;;;;32.21;23.33;99342.28;8621195;23;20646;-84
2021/09/06 13:07:16;;;;;;;5.87;5.27;;;;;;;33.19;22.96;99361.22;7055081;27;20551;-82
2021/09/06 13:10:38;;;;;;;5.53;5.03;;;;;;;33.35;23.18;99373.47;7054046;28;20318;-82
2021/09/06 13:14:00;;;;;;;6.23;5.17;;;;;;;33.57;22.37;99356.34;7055356;28;20208;-82
2021/09/06 13:17:21;;;;;;;5.73;5.23;;;;;;;32.94;24.11;99364.19;7055744;28;20564;-82
2021/09/06 13:20:43;;;;;;;5.80;5.20;;;;;;;33.31;23.90;99355.72;7014877;22;20210;-87
2021/09/06 13:24:06;;;;;;;6.43;5.60;;;;;;;33.73;22.05;99359.34;6997383;28;20191;-88
2021/09/06 13:27:28;;;;;;;6.77;6.07;;;;;;;33.37;22.02;99332.00;6968843;28;20211;-88
2021/09/06 13:30:49;;;;;;;8.07;5.40;;;;;;;32.67;23.67;99359.06;6964795;28;20241;-88
2021/09/06 13:34:11;;;;;;;6.00;5.37;;;;;;;32.69;23.72;99315.66;6965525;28;20212;-88
2021/09/06 13:37:33;;;;;;;6.13;5.63;;;;;;;32.19;24.13;99359.38;6965121;28;20219;-88
2021/09/06 13:40:56;;;;;;;5.73;5.23;;;;;;;31.71;25.02;99358.78;6964883;28;20226;-89
2021/09/06 13:44:17;;;;;;;6.87;5.70;;;;;;;31.78;24.26;99336.00;6964906;28;20213;-89
2021/09/06 13:47:39;;;;;;;8.10;5.73;;;;;;;32.11;24.96;99360.22;6964935;28;20208;-89
2021/09/06 13:51:01;;;;;;;5.97;5.37;;;;;;;31.19;24.26;99345.19;6967002;28;20224;-89
2021/09/06 13:54:23;;;;;;;5.70;5.20;;;;;;;30.77;24.62;99351.47;6964094;28;20207;-89
2021/09/06 13:57:46;;;;;;;6.20;5.60;;;;;;;30.95;24.19;99275.94;6963879;28;20619;-89
2021/09/06 14:01:09;;;;;;;6.07;5.07;;;;;;;31.46;24.41;99351.25;6963852;28;20236;-89
2021/09/06 14:04:31;;;;;;;8.80;5.30;;;;;;;31.61;24.51;99347.94;6964097;28;20230;-89
2021/09/06 14:07:52;;;;;;;5.93;5.30;;;;;;;32.40;24.45;99339.94;6963589;28;20222;-89
2021/09/06 14:11:14;;;;;;;6.20;5.57;;;;;;;32.29;24.37;99349.84;6965885;28;20588;-89
2021/09/06 14:14:37;;;;;;;6.00;5.40;;;;;;;32.69;23.81;99314.84;6963676;28;20220;-90
2021/09/06 14:17:59;;;;;;;5.73;5.23;;;;;;;32.42;23.63;99340.44;6948815;28;20216;-89
2021/09/06 14:21:21;;;;;;;6.13;5.40;;;;;;;32.84;22.85;99342.22;6945273;28;20226;-89
2021/09/06 14:24:42;;;;;;;5.73;4.97;;;;;;;32.78;23.54;99349.19;6946025;28;20235;-89
2021/09/06 14:28:05;;;;;;;7.07;5.13;;;;;;;33.03;25.16;99337.84;6946524;28;20207;-91
2021/09/06 14:31:28;;;;;;;7.13;5.20;;;;;;;32.29;22.97;99342.28;6946903;28;20670;-89
2021/09/06 14:34:50;;;;;;;8.37;5.67;;;;;;;32.00;24.30;99335.78;6945620;28;20218;-89
2021/09/06 14:38:12;;;;;;;8.50;5.47;;;;;;;32.43;22.69;99348.47;6946083;28;20245;-89
2021/09/06 14:41:34;;;;;;;5.60;5.10;;;;;;;31.95;23.82;99347.13;6945058;28;20212;-89
2021/09/06 14:44:55;;;;;;;5.20;4.80;;;;;;;32.34;23.70;99342.13;6945356;28;20230;-89
2021/09/06 14:48:18;;;;;;;5.77;5.17;;;;;;;31.91;24.10;99326.63;6944847;28;20206;-91
2021/09/06 14:51:40;;;;;;;7.00;5.60;;;;;;;32.16;23.87;99323.75;6945061;28;20210;-90
2021/09/06 14:55:02;;;;;;;5.57;5.07;;;;;;;32.13;24.27;99301.28;6944731;28;20210;-90
2021/09/06 14:58:23;;;;;;;5.97;5.33;;;;;;;32.19;24.27;99339.03;6945144;28;20236;-88
2021/09/06 15:01:45;;;;;;;6.17;5.30;;;;;;;31.94;23.80;99346.31;6945661;28;20208;-88
2021/09/06 15:05:09;;;;;;;6.43;5.43;;;;;;;32.22;23.02;99321.59;6945014;28;20346;-88
2021/09/06 15:08:31;;;;;;;6.97;5.57;;;;;;;32.30;23.68;99327.19;6944368;28;20232;-88
2021/09/06 15:11:54;;;;;;;5.63;5.17;;;;;;;32.58;23.71;99327.53;6944877;28;20210;-88
2021/09/06 15:15:16;;;;;;;5.90;5.40;;;;;;;31.91;24.00;99282.78;6944816;28;20688;-88
2021/09/06 15:18:40;;;;;;;6.07;5.47;;;;;;;32.47;23.82;99303.94;6944209;28;20245;-88
2021/09/06 15:22:04;;;;;;;5.73;5.13;;;;;;;32.54;22.77;99309.84;6946654;28;20203;-89
2021/09/06 15:25:26;;;;;;;7.40;5.23;;;;;;;32.18;24.07;99332.59;6944953;28;20231;-88
2021/09/06 15:28:48;;;;;;;6.37;5.23;;;;;;;31.92;23.89;99320.72;6944008;28;20227;-89
2021/09/06 15:32:10;;;;;;;5.83;5.27;;;;;;;32.04;23.00;99259.47;6944075;28;20214;-89
2021/09/06 15:35:32;;;;;;;6.10;5.50;;;;;;;31.95;24.53;99330.41;6944632;28;20216;-89
2021/09/06 15:39:01;;;;;;;7.13;5.83;;;;;;;31.43;23.93;99309.28;6945740;28;20226;-89
2021/09/06 15:42:24;;;;;;;6.17;5.30;;;;;;;31.17;24.55;99333.50;6943918;28;20221;-89
2021/09/06 15:45:45;;;;;;;7.27;5.20;;;;;;;31.67;24.87;99327.09;6943211;28;20244;-87
2021/09/06 15:49:07;;;;;;;6.77;5.63;;;;;;;31.41;24.77;99319.91;6943381;28;20241;-87
2021/09/06 15:52:29;;;;;;;7.13;6.13;;;;;;;32.04;24.33;99328.38;6943400;28;20556;-88
2021/09/06 15:55:52;;;;;;;6.20;5.60;;;;;;;32.07;24.20;99334.13;6943619;28;20207;-88
2021/09/06 15:59:13;;;;;;;7.17;5.83;;;;;;;32.22;24.49;99325.22;6942576;28;20226;-88
2021/09/06 16:02:35;;;;;;;6.87;6.00;;;;;;;30.65;25.99;99284.41;6942601;28;20210;-88
2021/09/06 16:05:57;;;;;;;6.60;5.50;;;;;;;31.18;26.22;99324.84;6942296;28;20691;-88
2021/09/06 16:09:19;;;;;;;6.20;5.60;;;;;;;30.02;27.81;99329.28;6946536;28;20217;-87
2021/09/06 16:12:45;;;;;;;7.53;6.40;;;;;;;30.16;27.96;99268.03;6947175;28;20582;-87
2021/09/06 16:16:07;;;;;;;6.27;5.67;;;;;;;31.32;25.91;99319.13;6948649;28;20225;-87
2021/09/06 16:19:29;;;;;;;6.93;5.70;;;;;;;31.10;26.84;99311.69;6947956;28;20574;-87
2021/09/06 16:22:51;;;;;;;5.57;5.07;;;;;;;30.82;25.98;99221.22;6949261;28;20210;-87
2021/09/06 16:26:13;;;;;;;6.63;5.97;;;;;;;30.84;26.80;99301.69;6948089;28;20237;-87
2021/09/06 16:29:36;;;;;;;6.73;5.67;;;;;;;31.39;27.04;99314.69;6946696;28;20232;-87
2021/09/06 16:32:58;;;;;;;6.50;5.90;;;;;;;31.13;26.31;99304.66;6947912;28;20207;-87
2021/09/06 16:36:19;;;;;;;6.43;5.43;;;;;;;31.06;26.23;99280.06;6947392;28;20205;-87
2021/09/06 16:39:41;;;;;;;6.80;5.53;;;;;;;31.27;26.68;99314.53;6947709;28;20223;-87
2021/09/06 16:43:03;;;;;;;6.57;5.93;;;;;;;30.93;26.61;99322.81;6948229;28;20209;-89
2021/09/06 16:46:26;;;;;;;6.27;5.67;;;;;;;31.13;26.53;99324.16;6942372;28;20630;-88
2021/09/06 16:49:48;;;;;;;7.13;6.43;;;;;;;31.10;26.95;99302.50;6941475;28;20237;-88
2021/09/06 16:53:10;;;;;;;6.60;5.67;;;;;;;30.79;27.79;99324.09;6941521;28;20205;-89
2021/09/06 16:56:33;;;;;;;6.83;6.23;;;;;;;31.01;27.45;99307.28;6941971;28;20209;-88
2021/09/06 16:59:55;;;;;;;6.50;5.67;;;;;;;31.20;30.29;99319.75;6941420;28;20620;-86
2021/09/06 17:03:18;;;;;;;6.73;5.83;;;;;;;30.94;31.22;99330.03;6941889;28;20208;-86
2021/09/06 17:06:40;;;;;;;6.83;6.10;;;;;;;30.17;32.89;99331.72;6941660;28;20224;-86
2021/09/06 17:10:02;;;;;;;8.30;6.67;;;;;;;29.97;33.31;99331.41;6943128;28;20304;-86
2021/09/06 17:13:23;;;;;;;6.47;5.87;;;;;;;29.41;34.08;99306.97;6942484;28;20668;-85
2021/09/06 17:16:45;;;;;;;7.43;6.43;;;;;;;29.64;33.97;99328.09;6941702;28;20208;-86
2021/09/06 17:20:09;;;;;;;8.90;6.53;;;;;;;29.28;35.17;99330.06;6943338;28;20232;-87
2021/09/06 17:23:31;;;;;;;8.80;6.67;;;;;;;28.72;37.11;99329.63;6953124;28;20207;-88
2021/09/06 17:26:52;;;;;;;11.03;7.30;;;;;;;28.32;38.21;99313.78;6951641;28;20313;-89
2021/09/06 17:30:15;;;;;;;9.70;6.97;;;;;;;28.27;39.06;99313.09;6956809;28;20231;-88
2021/09/06 17:33:36;;;;;;;10.27;6.70;;;;;;;27.98;39.99;99332.78;6954927;28;20201;-89
2021/09/06 17:37:00;;;;;;;10.07;6.97;;;;;;;27.37;41.56;99331.34;6966088;28;20208;-89
2021/09/06 17:40:21;;;;;;;8.10;7.27;;;;;;;27.41;41.84;99327.66;6961387;28;20243;-88
2021/09/06 17:43:43;;;;;;;9.57;7.13;;;;;;;27.09;42.90;99335.03;6946299;28;20196;-87
2021/09/06 17:47:05;;;;;;;8.83;6.67;;;;;;;26.74;44.05;99346.59;6942399;28;20593;-87
2021/09/06 17:50:27;;;;;;;10.67;6.47;;;;;;;26.47;44.17;99291.88;6947522;28;20226;-86
2021/09/06 17:53:50;;;;;;;8.80;7.70;;;;;;;26.55;45.01;99343.00;6952161;28;20208;-86
2021/09/06 17:57:12;;;;;;;7.10;6.40;;;;;;;26.52;44.96;99349.91;6949377;28;20667;-88
2021/09/06 18:00:34;;;;;;;7.80;7.07;;;;;;;26.14;45.91;99342.59;6950004;28;20230;-89
2021/09/06 18:03:55;;;;;;;8.60;6.43;;;;;;;26.02;45.92;99344.13;6950642;28;20209;-89
2021/09/06 18:07:17;;;;;;;7.63;6.83;;;;;;;25.77;45.99;99347.91;6946428;28;20230;-89
2021/09/06 18:10:41;;;;;;;7.30;6.60;;;;;;;25.88;45.15;99349.47;6949372;28;20230;-89
2021/09/06 18:14:03;;;;;;;9.27;7.43;;;;;;;25.58;46.16;99359.94;6948842;28;20210;-89
2021/09/06 18:17:24;;;;;;;8.47;7.67;;;;;;;25.10;46.39;99323.03;6946175;28;20210;-89
2021/09/06 18:20:46;;;;;;;7.87;6.80;;;;;;;25.53;46.16;99362.75;6946017;28;20242;-89
2021/09/06 18:24:08;;;;;;;8.23;7.10;;;;;;;25.63;45.45;99358.00;6946895;28;20205;-89
2021/09/06 18:27:36;;;;;;;8.50;7.40;;;;;;;25.33;45.27;99369.28;6954350;28;20594;-88
2021/09/06 18:30:58;;;;;;;7.40;6.67;;;;;;;25.08;45.69;99339.03;6960569;28;20230;-89
2021/09/06 18:34:20;;;;;;;8.60;7.23;;;;;;;25.08;45.59;99344.53;6956851;28;20256;-92
2021/09/06 18:37:41;;;;;;;8.10;7.30;;;;;;;24.67;45.70;99299.00;6945776;28;20215;-93
2021/09/06 18:41:05;;;;;;;8.50;7.17;;;;;;;24.97;46.30;99380.78;6945944;28;20734;-90
2021/09/06 18:44:28;;;;;;;8.97;7.80;;;;;;;24.80;46.91;99372.03;6947199;28;20215;-90
2021/09/06 18:47:49;;;;;;;8.77;7.87;;;;;;;24.27;47.04;99325.91;6949358;28;20230;-91
2021/09/06 18:51:11;;;;;;;11.17;7.47;;;;;;;23.64;50.16;99401.72;6946093;28;20227;-91
2021/09/06 18:54:33;;;;;;;10.83;8.33;;;;;;;23.84;48.78;99379.69;6947694;28;20205;-91
2021/09/06 18:57:54;;;;;;;8.57;7.30;;;;;;;23.61;47.39;99325.16;6947359;28;20212;-91
2021/09/06 19:01:18;;;;;;;8.27;6.50;;;;;;;24.23;47.78;99402.81;6947109;28;20233;-91
2021/09/06 19:04:40;;;;;;;9.20;7.73;;;;;;;24.07;47.36;99392.09;6946915;28;20216;-91
2021/09/06 19:08:02;;;;;;;8.57;7.67;;;;;;;23.77;48.32;99408.63;6946482;28;20225;-91
2021/09/06 19:11:24;;;;;;;9.67;7.73;;;;;;;23.04;49.64;99407.09;6946286;28;20212;-91
2021/09/06 19:14:45;;;;;;;9.37;7.10;;;;;;;23.02;49.93;99412.03;6947699;28;20202;-91
2021/09/06 19:18:09;;;;;;;7.67;6.80;;;;;;;22.78;50.27;99405.34;6946822;28;20216;-91
2021/09/06 19:21:30;;;;;;;8.80;7.10;;;;;;;22.74;50.36;99415.25;7033778;22;20230;-82